createdAt,value
2023-02-28T00:01:11.397Z,6.33
2023-02-28T00:03:39.170Z,6.50
2023-02-28T00:06:08.490Z,6.70
2023-02-28T00:08:36.424Z,6.90
2023-02-28T00:11:04.960Z,7.30
2023-02-28T00:13:32.836Z,7.10
2023-02-28T00:16:01.163Z,7.40
2023-02-28T00:18:31.575Z,7.03
2023-02-28T00:20:59.470Z,7.50
2023-02-28T00:23:27.276Z,6.93
2023-02-28T00:25:55.216Z,7.43
2023-02-28T00:28:23.172Z,6.90
2023-02-28T00:30:50.950Z,6.90
2023-02-28T00:33:18.817Z,6.77
2023-02-28T00:35:49.639Z,7.37
2023-02-28T00:38:17.816Z,6.97
2023-02-28T00:40:45.581Z,7.07
2023-02-28T00:43:13.314Z,6.67
2023-02-28T00:45:41.059Z,6.83
2023-02-28T00:48:08.772Z,7.20
2023-02-28T00:50:36.639Z,7.07
2023-02-28T00:53:05.803Z,7.53
2023-02-28T00:55:33.493Z,7.77
2023-02-28T00:58:01.185Z,7.37
2023-02-28T01:00:28.907Z,7.10
2023-02-28T01:02:56.650Z,7.20
2023-02-28T01:05:24.912Z,6.77
2023-02-28T01:07:52.731Z,6.83
2023-02-28T01:10:21.893Z,6.93
2023-02-28T01:12:49.591Z,7.10
2023-02-28T01:15:17.605Z,7.43
2023-02-28T01:17:45.371Z,7.17
2023-02-28T01:20:13.428Z,7.37
2023-02-28T01:22:41.133Z,7.03
2023-02-28T01:25:09.369Z,7.53
2023-02-28T01:27:40.561Z,6.80
2023-02-28T01:30:11.778Z,7.57
2023-02-28T01:32:39.509Z,7.10
2023-02-28T01:35:07.634Z,7.53
2023-02-28T01:37:35.469Z,7.37
2023-02-28T01:40:03.186Z,7.27
2023-02-28T01:42:30.974Z,7.00
2023-02-28T01:45:05.825Z,7.40
2023-02-28T01:47:35.178Z,7.57
2023-02-28T01:50:04.101Z,7.37
2023-02-28T01:52:32.257Z,7.37
2023-02-28T01:55:01.706Z,7.07
2023-02-28T01:57:32.277Z,7.17
2023-02-28T02:00:01.806Z,7.37
2023-02-28T02:02:33.101Z,7.60
2023-02-28T02:05:03.217Z,7.50
2023-02-28T02:07:32.874Z,7.90
2023-02-28T02:10:06.255Z,7.07
2023-02-28T02:12:37.705Z,7.83
2023-02-28T02:15:10.178Z,8.10
2023-02-28T02:17:41.702Z,7.77
2023-02-28T02:20:25.164Z,7.90
2023-02-28T02:23:09.528Z,8.00
2023-02-28T02:25:39.385Z,8.30
2023-02-28T02:28:27.785Z,7.87
2023-02-28T02:31:08.071Z,7.90
2023-02-28T02:34:05.745Z,7.80
2023-02-28T02:36:37.926Z,8.00
2023-02-28T02:39:08.785Z,8.03
2023-02-28T02:41:40.700Z,8.00
2023-02-28T02:44:14.316Z,8.17
2023-02-28T02:46:43.858Z,8.53
2023-02-28T02:49:17.687Z,8.57
2023-02-28T02:51:49.566Z,8.93
2023-02-28T02:54:19.925Z,9.03
2023-02-28T02:56:49.123Z,9.63
2023-02-28T02:59:22.116Z,9.60
2023-02-28T03:01:51.300Z,8.37
2023-02-28T03:04:20.945Z,9.10
2023-02-28T03:06:50.106Z,9.70
2023-02-28T03:09:17.984Z,9.60
2023-02-28T03:11:45.704Z,10.57
2023-02-28T03:14:25.494Z,10.53
2023-02-28T03:17:02.039Z,11.07
2023-02-28T03:19:47.712Z,11.13
2023-02-28T03:22:26.261Z,11.20
2023-02-28T03:24:57.258Z,11.43
2023-02-28T03:27:27.276Z,12.03
2023-02-28T03:30:00.589Z,12.87
2023-02-28T03:32:30.997Z,14.10
2023-02-28T03:35:01.426Z,14.23
2023-02-28T03:37:31.898Z,14.13
2023-02-28T03:40:01.608Z,14.43
2023-02-28T03:42:30.391Z,14.80
2023-02-28T03:44:59.384Z,15.20
2023-02-28T03:47:29.455Z,15.07
2023-02-28T03:49:59.486Z,15.33
2023-02-28T03:52:30.057Z,15.07
2023-02-28T03:55:01.687Z,14.87
2023-02-28T03:57:33.166Z,15.47
2023-02-28T04:00:05.334Z,14.53
2023-02-28T04:02:34.274Z,14.43
2023-02-28T04:05:02.095Z,14.33
2023-02-28T04:07:31.130Z,14.37
2023-02-28T04:10:00.783Z,14.17
2023-02-28T04:12:28.651Z,14.57
2023-02-28T04:14:56.381Z,13.60
2023-02-28T04:17:24.247Z,13.60
2023-02-28T04:19:51.953Z,12.93
2023-02-28T04:22:19.710Z,13.17
2023-02-28T04:24:47.510Z,12.43
2023-02-28T04:27:16.956Z,12.87
2023-02-28T04:29:46.077Z,12.90
2023-02-28T04:32:13.922Z,13.33
2023-02-28T04:34:41.725Z,12.80
2023-02-28T04:37:13.610Z,12.60
2023-02-28T04:39:45.413Z,12.77
2023-02-28T04:42:13.499Z,12.70
2023-02-28T04:44:42.704Z,12.70
2023-02-28T04:47:10.720Z,13.03
2023-02-28T04:49:38.488Z,13.77
2023-02-28T04:52:08.411Z,13.80
2023-02-28T04:54:36.305Z,13.60
2023-02-28T04:57:05.502Z,13.33
2023-02-28T04:59:33.792Z,14.00
2023-02-28T05:02:08.099Z,13.40
2023-02-28T05:04:36.298Z,13.60
2023-02-28T05:07:04.625Z,13.80
2023-02-28T05:09:33.981Z,14.93
2023-02-28T05:12:01.676Z,15.13
2023-02-28T05:14:29.371Z,14.40
2023-02-28T05:16:57.135Z,15.17
2023-02-28T05:19:26.237Z,15.83
2023-02-28T05:21:55.755Z,15.30
2023-02-28T05:24:24.742Z,15.03
2023-02-28T05:26:53.906Z,15.33
2023-02-28T05:29:21.945Z,15.50
2023-02-28T05:31:49.876Z,15.67
2023-02-28T05:34:17.637Z,15.90
2023-02-28T05:36:47.045Z,15.67
2023-02-28T05:39:14.766Z,15.13
2023-02-28T05:41:43.101Z,15.07
2023-02-28T05:44:13.494Z,15.37
2023-02-28T05:46:41.380Z,16.60
2023-02-28T05:49:09.200Z,15.53
2023-02-28T05:51:40.766Z,15.17
2023-02-28T05:54:10.484Z,15.63
2023-02-28T05:56:41.056Z,15.00
2023-02-28T05:59:08.941Z,15.10
2023-02-28T06:01:37.861Z,14.47
2023-02-28T06:04:06.245Z,15.10
2023-02-28T06:06:36.891Z,14.60
2023-02-28T06:09:04.981Z,14.13
2023-02-28T06:11:34.280Z,14.10
2023-02-28T06:14:02.747Z,13.97
2023-02-28T06:16:31.017Z,13.83
2023-02-28T06:18:59.361Z,13.40
2023-02-28T06:21:28.741Z,12.07
2023-02-28T06:23:57.286Z,11.90
2023-02-28T06:26:25.070Z,10.73
2023-02-28T06:28:54.209Z,10.57
2023-02-28T06:31:22.242Z,10.00
2023-02-28T06:33:50.333Z,9.80
2023-02-28T06:36:18.814Z,8.70
2023-02-28T06:38:46.803Z,8.47
2023-02-28T06:41:14.592Z,8.33
2023-02-28T06:43:43.226Z,8.20
2023-02-28T06:46:14.777Z,7.90
2023-02-28T06:48:42.901Z,7.90
2023-02-28T06:51:11.710Z,8.50
2023-02-28T06:53:39.690Z,8.03
2023-02-28T06:56:08.262Z,8.20
2023-02-28T06:58:36.022Z,8.57
2023-02-28T07:01:04.094Z,8.50
2023-02-28T07:03:34.550Z,8.50
2023-02-28T07:06:07.030Z,8.30
2023-02-28T07:08:35.030Z,7.90
2023-02-28T07:11:02.826Z,8.83
2023-02-28T07:13:30.585Z,8.13
2023-02-28T07:15:59.139Z,7.93
2023-02-28T07:18:27.176Z,7.60
2023-02-28T07:20:56.496Z,8.10
2023-02-28T07:23:24.579Z,8.47
2023-02-28T07:25:53.112Z,8.87
2023-02-28T07:28:21.006Z,9.87
2023-02-28T07:30:49.305Z,9.37
2023-02-28T07:33:17.340Z,10.03
2023-02-28T07:35:45.118Z,9.70
2023-02-28T07:38:14.894Z,9.97
2023-02-28T07:40:42.772Z,8.97
2023-02-28T07:43:10.545Z,9.40
2023-02-28T07:45:42.142Z,9.67
2023-02-28T07:48:11.159Z,9.63
2023-02-28T07:50:39.010Z,9.90
2023-02-28T07:53:06.904Z,10.57
2023-02-28T07:55:36.150Z,10.40
2023-02-28T07:58:03.904Z,10.87
2023-02-28T08:00:33.168Z,10.53
2023-02-28T08:03:03.694Z,11.93
2023-02-28T08:05:31.975Z,12.20
2023-02-28T08:07:59.757Z,12.23
2023-02-28T08:10:27.497Z,10.63
2023-02-28T08:12:56.699Z,10.77
2023-02-28T08:15:24.906Z,9.63
2023-02-28T08:17:52.743Z,9.87
2023-02-28T08:20:20.507Z,9.57
2023-02-28T08:22:48.239Z,9.60
2023-02-28T08:25:16.470Z,9.23
2023-02-28T08:27:44.239Z,8.97
2023-02-28T08:30:14.824Z,8.70
2023-02-28T08:32:42.788Z,8.20
2023-02-28T08:35:11.504Z,9.00
2023-02-28T08:37:39.500Z,9.20
2023-02-28T08:40:07.858Z,8.87
2023-02-28T08:42:35.571Z,8.83
2023-02-28T08:45:03.229Z,8.33
2023-02-28T08:47:32.307Z,7.93
2023-02-28T08:50:00.165Z,8.77
2023-02-28T08:52:27.936Z,8.77
2023-02-28T08:54:55.757Z,9.53
2023-02-28T08:57:23.442Z,8.73
2023-02-28T08:59:52.573Z,10.20
2023-02-28T09:02:20.744Z,8.87
2023-02-28T09:04:50.065Z,8.77
2023-02-28T09:07:17.786Z,8.70
2023-02-28T09:09:58.383Z,8.80
2023-02-28T09:12:26.975Z,8.77
2023-02-28T09:14:55.090Z,8.13
2023-02-28T09:17:25.024Z,9.27
2023-02-28T09:20:00.226Z,9.13
2023-02-28T09:22:28.753Z,8.47
2023-02-28T09:24:59.460Z,8.73
2023-02-28T09:27:29.068Z,8.77
2023-02-28T09:29:56.790Z,9.10
2023-02-28T09:32:24.655Z,9.23
2023-02-28T09:34:52.372Z,8.97
2023-02-28T09:37:21.533Z,8.57
2023-02-28T09:39:49.213Z,8.83
2023-02-28T09:42:23.291Z,8.40
2023-02-28T09:44:52.532Z,8.67
2023-02-28T09:47:23.829Z,9.23
2023-02-28T09:49:51.669Z,9.10
2023-02-28T09:52:20.907Z,8.90
2023-02-28T09:54:50.215Z,8.27
2023-02-28T09:57:21.301Z,8.13
2023-02-28T09:59:54.545Z,8.20
2023-02-28T10:02:32.361Z,8.00
2023-02-28T10:05:01.684Z,7.70
2023-02-28T10:07:39.963Z,7.97
2023-02-28T10:10:20.383Z,7.40
2023-02-28T10:12:49.147Z,7.70
2023-02-28T10:15:17.627Z,7.07
2023-02-28T10:18:00.749Z,7.27
2023-02-28T10:20:37.490Z,6.80
2023-02-28T10:23:08.589Z,6.40
2023-02-28T10:25:38.760Z,6.60
2023-02-28T10:28:11.459Z,6.90
2023-02-28T10:30:41.306Z,6.80
2023-02-28T10:33:18.941Z,6.53
2023-02-28T10:35:46.785Z,6.07
2023-02-28T10:38:17.723Z,6.17
2023-02-28T10:40:46.968Z,6.23
2023-02-28T10:43:22.240Z,6.00
2023-02-28T10:46:00.903Z,5.57
2023-02-28T10:48:31.461Z,5.97
2023-02-28T10:50:59.917Z,6.03
2023-02-28T10:53:36.020Z,5.67
2023-02-28T10:56:17.551Z,5.70
2023-02-28T10:58:53.476Z,6.03
2023-02-28T11:01:23.000Z,5.90
2023-02-28T11:03:51.353Z,5.30
2023-02-28T11:06:21.375Z,5.33
2023-02-28T11:08:50.147Z,5.20
2023-02-28T11:11:19.815Z,4.83
2023-02-28T11:13:49.173Z,5.10
2023-02-28T11:16:20.530Z,4.80
2023-02-28T11:18:51.234Z,4.63
2023-02-28T11:21:21.122Z,4.90
2023-02-28T11:23:49.823Z,4.57
2023-02-28T11:26:18.575Z,4.77
2023-02-28T11:28:47.648Z,4.60
2023-02-28T11:31:20.630Z,4.33
2023-02-28T11:33:51.317Z,4.60
2023-02-28T11:36:21.555Z,4.10
2023-02-28T11:38:50.459Z,4.20
2023-02-28T11:41:30.702Z,4.03
2023-02-28T11:44:06.846Z,4.30
2023-02-28T11:46:38.538Z,3.80
2023-02-28T11:49:15.788Z,3.80
2023-02-28T11:51:49.185Z,3.93
2023-02-28T11:54:27.779Z,3.77
2023-02-28T11:56:57.270Z,3.80
2023-02-28T11:59:36.972Z,3.40
2023-02-28T12:02:18.169Z,3.50
2023-02-28T12:04:50.389Z,3.80
2023-02-28T12:07:21.339Z,3.60
2023-02-28T12:09:54.989Z,3.50
2023-02-28T12:12:30.968Z,3.57
2023-02-28T12:15:17.376Z,3.70
2023-02-28T12:17:52.196Z,3.30
2023-02-28T12:20:26.793Z,3.00
2023-02-28T12:23:00.384Z,3.20
2023-02-28T12:25:48.033Z,3.20
2023-02-28T12:28:17.202Z,3.50
2023-02-28T12:30:48.005Z,3.23
2023-02-28T12:33:19.058Z,3.10
2023-02-28T12:35:49.902Z,3.10
2023-02-28T12:38:20.490Z,2.80
2023-02-28T12:40:53.595Z,2.80
2023-02-28T12:43:23.057Z,2.80
2023-02-28T12:45:53.001Z,2.63
2023-02-28T12:48:23.509Z,2.60
2023-02-28T12:50:51.320Z,2.60
2023-02-28T12:53:22.610Z,2.40
2023-02-28T12:55:52.467Z,2.30
2023-02-28T12:58:22.899Z,2.30
2023-02-28T13:01:00.170Z,1.90
2023-02-28T13:03:48.462Z,2.20
2023-02-28T13:06:33.213Z,2.20
2023-02-28T13:09:09.817Z,1.97
2023-02-28T13:11:41.188Z,2.00
2023-02-28T13:14:18.508Z,2.00
2023-02-28T13:16:58.102Z,2.10
2023-02-28T13:19:28.258Z,2.10
2023-02-28T13:21:56.351Z,1.90
2023-02-28T13:24:42.938Z,1.60
2023-02-28T13:27:34.624Z,1.50
2023-02-28T13:30:03.289Z,1.80
2023-02-28T13:32:34.033Z,1.60
2023-02-28T13:35:36.536Z,2.10
2023-02-28T13:38:24.436Z,2.00
2023-02-28T13:40:52.164Z,2.00
2023-02-28T13:43:34.540Z,1.80
2023-02-28T13:46:15.234Z,1.80
2023-02-28T13:48:43.223Z,1.70
2023-02-28T13:51:42.632Z,1.70
2023-02-28T13:54:19.163Z,1.60
2023-02-28T13:56:50.758Z,1.80
2023-02-28T13:59:23.564Z,1.80
2023-02-28T14:02:08.815Z,1.80
2023-02-28T14:04:54.485Z,2.17
2023-02-28T14:07:23.969Z,1.60
2023-02-28T14:09:57.499Z,1.90
2023-02-28T14:12:44.063Z,1.90
2023-02-28T14:15:26.570Z,1.90
2023-02-28T14:17:54.543Z,1.80
2023-02-28T14:20:24.048Z,1.90
2023-02-28T14:22:56.968Z,1.90
2023-02-28T14:25:34.642Z,1.70
2023-02-28T14:28:08.841Z,1.57
2023-02-28T14:30:45.937Z,1.70
2023-02-28T14:33:23.168Z,1.70
2023-02-28T14:35:58.992Z,1.60
2023-02-28T14:38:28.909Z,1.60
2023-02-28T14:40:59.328Z,1.60
2023-02-28T14:43:30.593Z,1.50
2023-02-28T14:45:59.544Z,1.60
2023-02-28T14:48:27.927Z,1.80
2023-02-28T14:50:56.709Z,1.67
2023-02-28T14:53:25.512Z,1.60
2023-02-28T14:55:53.941Z,1.63
2023-02-28T14:58:27.984Z,1.90
2023-02-28T15:00:57.477Z,1.97
2023-02-28T15:03:26.584Z,2.00
2023-02-28T15:05:55.375Z,1.90
2023-02-28T15:08:23.248Z,1.80
2023-02-28T15:10:55.431Z,1.67
2023-02-28T15:13:23.356Z,1.63
2023-02-28T15:16:03.782Z,1.80
2023-02-28T15:18:34.129Z,1.63
2023-02-28T15:21:04.401Z,1.60
2023-02-28T15:23:32.631Z,1.73
2023-02-28T15:26:01.190Z,1.70
2023-02-28T15:28:29.977Z,1.90
2023-02-28T15:31:00.611Z,1.77
2023-02-28T15:33:29.155Z,1.80
2023-02-28T15:36:07.885Z,1.70
2023-02-28T15:38:36.886Z,1.70
2023-02-28T15:41:09.155Z,1.60
2023-02-28T15:43:39.202Z,1.80
2023-02-28T15:46:09.306Z,1.90
2023-02-28T15:48:38.526Z,1.90
2023-02-28T15:51:09.255Z,1.80
2023-02-28T15:53:38.422Z,1.70
2023-02-28T15:56:07.034Z,1.73
2023-02-28T15:58:35.031Z,1.60
2023-02-28T16:01:06.353Z,1.70
2023-02-28T16:03:43.226Z,1.77
2023-02-28T16:06:18.763Z,2.00
2023-02-28T16:08:46.641Z,1.90
2023-02-28T16:11:14.556Z,1.70
2023-02-28T16:13:42.307Z,1.77
2023-02-28T16:16:10.287Z,2.00
2023-02-28T16:18:38.023Z,1.83
2023-02-28T16:21:07.302Z,1.70
2023-02-28T16:23:37.874Z,1.80
2023-02-28T16:26:06.079Z,1.80
2023-02-28T16:28:35.905Z,1.90
2023-02-28T16:31:04.620Z,1.87
2023-02-28T16:33:32.663Z,2.00
2023-02-28T16:36:00.559Z,1.80
2023-02-28T16:38:29.917Z,1.90
2023-02-28T16:41:01.254Z,1.90
2023-02-28T16:43:29.587Z,1.80
2023-02-28T16:46:01.192Z,1.80
2023-02-28T16:48:29.389Z,1.90
2023-02-28T16:50:57.075Z,1.60
2023-02-28T16:53:24.838Z,1.60
2023-02-28T16:55:56.262Z,1.70
2023-02-28T16:58:26.628Z,1.47
2023-02-28T17:00:54.606Z,1.60
2023-02-28T17:03:32.646Z,1.80
2023-02-28T17:06:04.546Z,1.60
2023-02-28T17:08:33.306Z,1.30
2023-02-28T17:11:03.430Z,1.50
2023-02-28T17:13:31.203Z,1.40
2023-02-28T17:15:59.046Z,1.50
2023-02-28T17:18:34.700Z,1.60
2023-02-28T17:21:02.583Z,1.60
2023-02-28T17:23:30.434Z,1.40
2023-02-28T17:25:58.389Z,1.30
2023-02-28T17:28:27.528Z,1.50
2023-02-28T17:30:55.478Z,1.60
2023-02-28T17:33:23.328Z,1.60
2023-02-28T17:35:51.745Z,1.60
2023-02-28T17:38:20.454Z,1.60
2023-02-28T17:40:48.300Z,1.57
2023-02-28T17:43:16.919Z,1.50
2023-02-28T17:45:46.112Z,1.40
2023-02-28T17:48:16.643Z,1.43
2023-02-28T17:50:44.445Z,1.40
2023-02-28T17:53:14.075Z,1.43
2023-02-28T17:55:41.787Z,1.40
2023-02-28T17:58:12.079Z,1.50
2023-02-28T18:00:40.279Z,1.40
2023-02-28T18:03:10.679Z,1.43
2023-02-28T18:05:38.635Z,1.50
2023-02-28T18:08:06.468Z,1.50
2023-02-28T18:10:34.556Z,1.50
2023-02-28T18:13:02.889Z,1.60
2023-02-28T18:15:30.645Z,1.50
2023-02-28T18:17:58.935Z,1.60
2023-02-28T18:20:29.396Z,1.60
2023-02-28T18:22:57.272Z,1.50
2023-02-28T18:25:27.621Z,1.53
2023-02-28T18:27:58.429Z,1.60
2023-02-28T18:30:27.184Z,1.60
2023-02-28T18:32:54.925Z,1.50
2023-02-28T18:35:36.252Z,1.60
2023-02-28T18:38:07.540Z,1.50
2023-02-28T18:40:35.347Z,1.50
2023-02-28T18:43:03.570Z,1.70
2023-02-28T18:45:31.272Z,1.70
2023-02-28T18:48:00.713Z,1.40
2023-02-28T18:50:29.655Z,1.60
2023-02-28T18:52:58.016Z,1.70
2023-02-28T18:55:27.979Z,1.57
2023-02-28T18:57:55.794Z,1.47
2023-02-28T19:00:25.741Z,1.50
2023-02-28T19:02:53.938Z,1.30
2023-02-28T19:05:23.916Z,1.47
2023-02-28T19:07:51.879Z,1.20
2023-02-28T19:10:19.766Z,1.70
2023-02-28T19:12:49.046Z,1.73
2023-02-28T19:15:16.747Z,1.50
2023-02-28T19:17:46.226Z,1.70
2023-02-28T19:20:14.695Z,1.43
2023-02-28T19:22:44.247Z,1.30
2023-02-28T19:25:14.705Z,1.50
2023-02-28T19:27:42.645Z,1.60
2023-02-28T19:30:14.455Z,1.60
2023-02-28T19:32:45.319Z,1.53
2023-02-28T19:35:13.087Z,1.50
2023-02-28T19:37:41.437Z,1.60
2023-02-28T19:40:10.048Z,1.60
2023-02-28T19:42:38.048Z,1.50
2023-02-28T19:45:06.999Z,1.70
2023-02-28T19:47:36.521Z,1.80
2023-02-28T19:50:04.861Z,1.60
2023-02-28T19:52:32.866Z,1.60
2023-02-28T19:55:01.730Z,1.60
2023-02-28T19:57:30.523Z,1.60
2023-02-28T19:59:58.467Z,1.60
2023-02-28T20:02:26.687Z,1.70
2023-02-28T20:04:59.204Z,1.83
2023-02-28T20:07:32.250Z,1.80
2023-02-28T20:10:00.035Z,1.90
2023-02-28T20:12:32.471Z,1.90
2023-02-28T20:15:00.888Z,2.00
2023-02-28T20:17:30.525Z,2.00
2023-02-28T20:20:02.032Z,2.00
2023-02-28T20:22:29.753Z,1.90
2023-02-28T20:24:57.634Z,2.10
2023-02-28T20:27:28.387Z,2.10
2023-02-28T20:29:56.348Z,1.90
2023-02-28T20:32:24.263Z,2.00
2023-02-28T20:34:54.030Z,2.00
2023-02-28T20:37:23.163Z,1.90
2023-02-28T20:39:53.443Z,1.93
2023-02-28T20:42:21.171Z,2.00
2023-02-28T20:44:48.856Z,2.00
2023-02-28T20:47:16.550Z,2.20
2023-02-28T20:49:44.280Z,1.93
2023-02-28T20:52:12.061Z,2.40
2023-02-28T20:54:41.268Z,2.50
2023-02-28T20:57:09.147Z,2.30
2023-02-28T20:59:38.846Z,2.17
2023-02-28T21:02:06.645Z,2.30
2023-02-28T21:04:34.585Z,2.43
2023-02-28T21:07:05.295Z,2.50
2023-02-28T21:09:33.543Z,2.50
2023-02-28T21:12:05.329Z,2.53
2023-02-28T21:14:33.703Z,2.50
2023-02-28T21:17:01.823Z,2.57
2023-02-28T21:19:29.695Z,2.40
2023-02-28T21:21:58.673Z,2.30
2023-02-28T21:24:30.055Z,2.10
2023-02-28T21:26:59.843Z,2.77
2023-02-28T21:29:29.781Z,2.53
2023-02-28T21:31:58.139Z,2.73
2023-02-28T21:34:27.306Z,2.80
2023-02-28T21:36:55.099Z,2.70
2023-02-28T21:39:26.308Z,2.60
2023-02-28T21:42:03.864Z,2.53
2023-02-28T21:44:38.040Z,2.80
2023-02-28T21:47:08.885Z,2.70
2023-02-28T21:49:43.524Z,2.90
2023-02-28T21:52:11.331Z,2.60
2023-02-28T21:54:39.048Z,3.00
2023-02-28T21:57:09.636Z,3.00
2023-02-28T21:59:39.771Z,2.70
2023-02-28T22:02:10.719Z,3.20
2023-02-28T22:04:38.504Z,2.83
2023-02-28T22:07:06.414Z,2.80
2023-02-28T22:09:34.643Z,2.90
2023-02-28T22:12:08.546Z,3.00
2023-02-28T22:14:36.300Z,2.90
2023-02-28T22:17:05.971Z,3.00
2023-02-28T22:19:37.149Z,3.10
2023-02-28T22:22:04.881Z,3.10
2023-02-28T22:24:34.248Z,3.23
2023-02-28T22:27:02.813Z,3.00
2023-02-28T22:29:31.718Z,3.03
2023-02-28T22:32:01.177Z,2.80
2023-02-28T22:34:32.610Z,3.03
2023-02-28T22:37:00.477Z,3.07
2023-02-28T22:39:28.877Z,2.90
2023-02-28T22:41:57.491Z,3.03
2023-02-28T22:44:25.216Z,3.07
2023-02-28T22:46:56.427Z,3.00
2023-02-28T22:49:25.107Z,3.10
2023-02-28T22:51:54.322Z,3.00
2023-02-28T22:54:22.116Z,3.30
2023-02-28T22:56:50.054Z,3.10
2023-02-28T22:59:18.616Z,3.30
2023-02-28T23:01:46.342Z,3.50
2023-02-28T23:04:15.697Z,3.40
2023-02-28T23:06:45.262Z,3.40
2023-02-28T23:09:17.776Z,3.30
2023-02-28T23:11:48.990Z,3.43
2023-02-28T23:14:17.715Z,3.57
2023-02-28T23:16:46.439Z,3.77
2023-02-28T23:19:15.426Z,3.33
2023-02-28T23:21:43.590Z,3.60
2023-02-28T23:24:12.062Z,3.20
2023-02-28T23:26:44.273Z,3.40
2023-02-28T23:29:12.496Z,3.60
2023-02-28T23:31:40.328Z,3.10
2023-02-28T23:34:08.293Z,3.20
2023-02-28T23:36:36.523Z,3.20
2023-02-28T23:39:04.875Z,3.00
2023-02-28T23:41:33.420Z,2.80
2023-02-28T23:44:05.829Z,2.90
2023-02-28T23:46:34.362Z,2.90
2023-02-28T23:49:03.649Z,3.10
2023-02-28T23:51:32.200Z,2.90
2023-02-28T23:54:03.376Z,3.00
2023-02-28T23:56:32.022Z,3.20
2023-02-28T23:59:00.885Z,2.90
